createdAt,value
2019-01-15T00:00:09.723Z,1.30
2019-01-15T00:02:37.217Z,1.20
2019-01-15T00:05:05.688Z,1.20
2019-01-15T00:07:33.169Z,1.20
2019-01-15T00:10:00.632Z,1.20
2019-01-15T00:12:28.124Z,1.20
2019-01-15T00:14:57.897Z,1.20
2019-01-15T00:17:25.371Z,1.20
2019-01-15T00:19:52.880Z,1.20
2019-01-15T00:22:20.329Z,1.20
2019-01-15T00:24:47.848Z,1.20
2019-01-15T00:27:15.307Z,1.20
2019-01-15T00:29:42.834Z,1.20
2019-01-15T00:32:13.104Z,1.60
2019-01-15T00:34:40.591Z,1.30
2019-01-15T00:37:08.164Z,1.30
2019-01-15T00:39:35.612Z,1.30
2019-01-15T00:42:03.139Z,1.40
2019-01-15T00:44:30.619Z,1.30
2019-01-15T00:46:58.084Z,1.40
2019-01-15T00:49:25.734Z,1.80
2019-01-15T00:51:53.240Z,1.40
2019-01-15T00:54:20.705Z,1.40
2019-01-15T00:56:48.210Z,1.50
2019-01-15T00:59:15.690Z,1.50
2019-01-15T01:01:45.986Z,1.50
2019-01-15T01:04:13.465Z,1.50
2019-01-15T01:06:40.949Z,1.50
2019-01-15T01:09:10.136Z,1.50
2019-01-15T01:11:37.620Z,1.50
2019-01-15T01:14:05.092Z,1.50
2019-01-15T01:16:32.566Z,1.60
2019-01-15T01:19:00.047Z,1.60
2019-01-15T01:21:27.547Z,1.70
2019-01-15T01:23:55.364Z,1.60
2019-01-15T01:26:22.842Z,1.60
2019-01-15T01:28:50.359Z,1.60
2019-01-15T01:31:17.846Z,1.60
2019-01-15T01:33:45.343Z,1.60
2019-01-15T01:36:12.812Z,1.60
2019-01-15T01:38:40.311Z,1.60
2019-01-15T01:41:07.769Z,1.60
2019-01-15T01:43:36.322Z,1.50
2019-01-15T01:46:03.847Z,1.50
2019-01-15T01:48:31.300Z,1.50
2019-01-15T01:50:58.758Z,1.50
2019-01-15T01:53:26.260Z,1.50
2019-01-15T01:55:54.033Z,1.50
2019-01-15T01:58:21.549Z,1.50
2019-01-15T02:00:49.073Z,1.50
2019-01-15T02:03:16.518Z,1.40
2019-01-15T02:05:43.991Z,1.40
2019-01-15T02:08:11.506Z,1.30
2019-01-15T02:10:38.957Z,1.40
2019-01-15T02:13:06.446Z,1.30
2019-01-15T02:15:34.032Z,1.30
2019-01-15T02:18:01.496Z,1.30
2019-01-15T02:20:28.983Z,1.30
2019-01-15T02:22:56.465Z,1.40
2019-01-15T02:25:23.834Z,1.40
2019-01-15T02:27:53.268Z,1.40
2019-01-15T02:30:22.871Z,1.40
2019-01-15T02:32:53.400Z,1.40
2019-01-15T02:35:20.867Z,1.40
2019-01-15T02:37:48.358Z,1.40
2019-01-15T02:40:15.916Z,1.40
2019-01-15T02:42:47.272Z,1.50
2019-01-15T02:45:17.948Z,1.50
2019-01-15T02:47:45.684Z,1.50
2019-01-15T02:50:17.330Z,1.50
2019-01-15T02:52:47.727Z,1.50
2019-01-15T02:55:15.186Z,1.50
2019-01-15T02:57:42.685Z,1.50
2019-01-15T03:00:18.653Z,1.40
2019-01-15T03:02:46.276Z,1.40
2019-01-15T03:05:13.945Z,1.40
2019-01-15T03:07:41.443Z,1.40
2019-01-15T03:10:10.435Z,1.40
2019-01-15T03:12:38.924Z,1.40
2019-01-15T03:15:06.585Z,1.40
2019-01-15T03:17:34.074Z,1.40
2019-01-15T03:20:01.593Z,1.40
2019-01-15T03:22:29.046Z,1.50
2019-01-15T03:24:57.658Z,1.40
2019-01-15T03:27:25.113Z,1.50
2019-01-15T03:29:52.566Z,1.50
2019-01-15T03:32:25.631Z,1.40
2019-01-15T03:34:53.078Z,1.50
2019-01-15T03:37:20.772Z,1.50
2019-01-15T03:39:48.225Z,1.50
2019-01-15T03:42:15.695Z,1.50
2019-01-15T03:44:46.140Z,1.40
2019-01-15T03:47:13.622Z,1.50
2019-01-15T03:49:41.107Z,1.50
2019-01-15T03:52:08.592Z,1.50
2019-01-15T03:54:36.033Z,1.50
2019-01-15T03:57:04.704Z,1.50
2019-01-15T03:59:32.165Z,1.50
2019-01-15T04:01:59.622Z,1.50
2019-01-15T04:04:27.153Z,1.50
2019-01-15T04:06:54.649Z,1.50
2019-01-15T04:09:22.339Z,1.40
2019-01-15T04:11:50.150Z,1.40
2019-01-15T04:14:17.641Z,1.40
2019-01-15T04:16:45.097Z,1.40
2019-01-15T04:19:12.572Z,1.40
2019-01-15T04:21:40.057Z,1.40
2019-01-15T04:24:07.507Z,1.40
2019-01-15T04:26:35.014Z,1.40
2019-01-15T04:29:04.753Z,1.40
2019-01-15T04:31:32.213Z,1.40
2019-01-15T04:33:59.727Z,1.40
2019-01-15T04:36:27.400Z,1.40
2019-01-15T04:38:54.913Z,1.40
2019-01-15T04:41:22.383Z,1.40
2019-01-15T04:43:49.869Z,1.40
2019-01-15T04:46:17.382Z,1.40
2019-01-15T04:48:44.893Z,1.40
2019-01-15T04:51:12.363Z,1.40
2019-01-15T04:53:44.480Z,1.40
2019-01-15T04:56:12.200Z,1.40
2019-01-15T04:58:39.657Z,1.40
2019-01-15T05:01:07.131Z,1.40
2019-01-15T05:03:34.618Z,1.40
2019-01-15T05:06:02.090Z,1.40
2019-01-15T05:08:29.584Z,1.40
2019-01-15T05:10:57.101Z,1.40
2019-01-15T05:13:27.502Z,1.30
2019-01-15T05:15:53.872Z,1.40
2019-01-15T05:18:21.334Z,1.40
2019-01-15T05:20:48.838Z,1.30
2019-01-15T05:23:16.336Z,1.40
2019-01-15T05:25:43.952Z,1.30
2019-01-15T05:28:11.486Z,1.30
2019-01-15T05:30:38.940Z,1.40
2019-01-15T05:33:06.458Z,1.40
2019-01-15T05:35:33.945Z,1.30
2019-01-15T05:38:01.573Z,1.30
2019-01-15T05:40:29.219Z,1.30
2019-01-15T05:42:59.277Z,1.30
2019-01-15T05:45:34.172Z,1.30
2019-01-15T05:48:18.138Z,1.40
2019-01-15T05:50:56.213Z,1.40
2019-01-15T05:53:23.727Z,1.40
2019-01-15T05:55:51.204Z,1.40
2019-01-15T05:58:18.690Z,1.40
2019-01-15T06:00:46.185Z,1.40
2019-01-15T06:03:13.705Z,1.40
2019-01-15T06:05:41.166Z,1.40
2019-01-15T06:08:08.668Z,1.40
2019-01-15T06:10:37.588Z,1.30
2019-01-15T06:13:05.032Z,1.40
2019-01-15T06:15:32.494Z,1.30
2019-01-15T06:17:59.990Z,1.30
2019-01-15T06:20:27.465Z,1.30
2019-01-15T06:22:54.974Z,1.30
2019-01-15T06:26:08.404Z,1.30
2019-01-15T06:28:36.200Z,1.30
2019-01-15T06:31:03.893Z,1.30
2019-01-15T06:33:31.426Z,1.30
2019-01-15T06:35:58.910Z,1.30
2019-01-15T06:38:26.380Z,1.30
2019-01-15T06:40:53.876Z,1.30
2019-01-15T06:43:21.817Z,1.30
2019-01-15T06:45:49.334Z,1.30
2019-01-15T06:48:18.213Z,1.30
2019-01-15T06:50:45.922Z,1.30
2019-01-15T06:53:13.376Z,1.30
2019-01-15T06:55:40.855Z,1.30
2019-01-15T06:58:08.374Z,1.30
2019-01-15T07:00:36.196Z,1.30
2019-01-15T07:03:03.956Z,1.30
2019-01-15T07:05:31.423Z,1.30
2019-01-15T07:08:01.225Z,1.30
2019-01-15T07:10:31.607Z,1.30
2019-01-15T07:12:59.089Z,1.30
2019-01-15T07:15:26.589Z,1.30
2019-01-15T07:17:54.056Z,1.30
2019-01-15T07:20:21.666Z,1.30
2019-01-15T07:22:49.149Z,1.30
2019-01-15T07:25:16.838Z,1.30
2019-01-15T07:27:44.340Z,1.30
2019-01-15T07:30:20.373Z,1.40
2019-01-15T07:32:49.084Z,1.40
2019-01-15T07:35:16.776Z,1.40
2019-01-15T07:37:46.069Z,1.40
2019-01-15T07:40:13.669Z,1.40
2019-01-15T07:42:41.203Z,1.40
2019-01-15T07:45:10.031Z,1.40
2019-01-15T07:47:37.457Z,1.40
2019-01-15T07:50:12.954Z,1.40
2019-01-15T07:52:40.642Z,1.50
2019-01-15T07:55:09.278Z,1.40
2019-01-15T07:57:36.757Z,1.50
2019-01-15T08:00:05.724Z,1.50
2019-01-15T08:02:33.247Z,1.50
2019-01-15T08:05:00.728Z,1.50
2019-01-15T08:07:28.220Z,1.60
2019-01-15T08:09:55.717Z,1.60
2019-01-15T08:12:26.229Z,1.60
2019-01-15T08:14:53.720Z,1.60
2019-01-15T08:17:26.503Z,1.70
2019-01-15T08:19:55.972Z,1.70
2019-01-15T08:22:23.303Z,1.70
2019-01-15T08:24:55.464Z,1.70
2019-01-15T08:27:22.937Z,1.70
2019-01-15T08:29:50.449Z,1.70
2019-01-15T08:32:17.911Z,1.70
2019-01-15T08:34:45.369Z,1.70
2019-01-15T08:37:12.919Z,1.70
2019-01-15T08:39:40.365Z,1.70
2019-01-15T08:42:07.842Z,1.70
2019-01-15T08:44:35.773Z,1.70
2019-01-15T08:47:03.370Z,1.70
2019-01-15T08:49:30.876Z,1.80
2019-01-15T08:51:58.353Z,1.80
2019-01-15T08:54:26.413Z,1.90
2019-01-15T08:56:54.058Z,1.80
2019-01-15T08:59:21.538Z,1.90
2019-01-15T09:01:49.096Z,1.90
2019-01-15T09:04:19.288Z,1.90
2019-01-15T09:06:46.756Z,1.90
2019-01-15T09:09:14.283Z,1.90
2019-01-15T09:11:42.986Z,2.00
2019-01-15T09:14:10.475Z,2.00
2019-01-15T09:16:38.034Z,2.00
2019-01-15T09:19:22.477Z,2.00
2019-01-15T09:21:51.232Z,2.10
2019-01-15T09:24:21.551Z,2.10
2019-01-15T09:26:53.692Z,2.10
2019-01-15T09:29:24.156Z,2.10
2019-01-15T09:31:51.984Z,2.10
2019-01-15T09:34:19.457Z,2.10
2019-01-15T09:36:46.914Z,2.20
2019-01-15T09:39:14.420Z,2.20
2019-01-15T09:41:42.589Z,2.30
2019-01-15T09:44:10.052Z,2.20
2019-01-15T09:46:37.587Z,2.30
2019-01-15T09:49:24.504Z,2.30
2019-01-15T09:51:52.026Z,2.30
2019-01-15T09:54:19.544Z,2.30
2019-01-15T09:56:47.039Z,2.40
2019-01-15T09:59:19.808Z,2.40
2019-01-15T10:01:47.686Z,2.40
2019-01-15T10:04:15.148Z,2.40
2019-01-15T10:06:42.660Z,2.40
2019-01-15T10:09:10.183Z,2.50
2019-01-15T10:11:39.165Z,2.50
2019-01-15T10:14:06.788Z,2.50
2019-01-15T10:16:34.258Z,2.50
2019-01-15T10:19:01.698Z,2.50
2019-01-15T10:21:29.243Z,2.50
2019-01-15T10:23:56.717Z,2.50
2019-01-15T10:26:24.215Z,2.50
2019-01-15T10:28:51.691Z,2.50
2019-01-15T10:31:58.753Z,2.60
2019-01-15T10:34:33.371Z,2.60
2019-01-15T10:37:00.180Z,2.60
2019-01-15T10:39:27.659Z,2.60
2019-01-15T10:41:55.133Z,2.60
2019-01-15T10:44:22.669Z,2.60
2019-01-15T10:46:50.153Z,2.60
2019-01-15T10:49:17.615Z,2.60
2019-01-15T10:51:46.417Z,3.00
2019-01-15T10:54:13.805Z,2.60
2019-01-15T10:56:41.332Z,2.60
2019-01-15T10:59:08.787Z,2.70
2019-01-15T11:01:36.287Z,2.70
2019-01-15T11:04:04.063Z,2.70
2019-01-15T11:06:31.568Z,2.80
2019-01-15T11:08:59.095Z,2.80
2019-01-15T11:11:30.713Z,2.80
2019-01-15T11:13:58.166Z,2.80
2019-01-15T11:16:25.701Z,2.90
2019-01-15T11:18:53.184Z,2.90
2019-01-15T11:21:20.692Z,2.90
2019-01-15T11:23:48.182Z,3.00
2019-01-15T11:26:15.708Z,3.00
2019-01-15T11:28:43.241Z,3.10
2019-01-15T11:31:10.714Z,3.10
2019-01-15T11:33:38.254Z,3.10
2019-01-15T11:36:08.655Z,3.20
2019-01-15T11:38:36.126Z,3.20
2019-01-15T11:41:03.754Z,3.20
2019-01-15T11:43:31.218Z,3.20
2019-01-15T11:45:58.724Z,3.20
2019-01-15T11:48:26.294Z,3.30
2019-01-15T11:50:53.820Z,3.30
2019-01-15T11:53:21.281Z,3.30
2019-01-15T11:55:48.766Z,3.30
2019-01-15T11:58:16.246Z,3.30
2019-01-15T12:00:51.851Z,3.40
2019-01-15T12:03:33.828Z,3.40
2019-01-15T12:06:23.837Z,3.40
2019-01-15T12:09:10.701Z,3.50
2019-01-15T12:12:07.371Z,3.50
2019-01-15T12:14:53.033Z,3.40
2019-01-15T12:17:32.483Z,3.40
2019-01-15T12:20:31.513Z,3.40
2019-01-15T12:23:24.293Z,3.50
2019-01-15T12:26:04.408Z,3.80
2019-01-15T12:28:47.513Z,3.90
2019-01-15T12:31:36.917Z,3.90
2019-01-15T12:34:29.821Z,4.00
2019-01-15T12:37:22.819Z,4.10
2019-01-15T12:40:16.976Z,4.20
2019-01-15T12:43:19.532Z,4.30
2019-01-15T12:46:12.638Z,4.20
2019-01-15T12:48:58.263Z,4.10
2019-01-15T12:51:48.253Z,3.90
2019-01-15T12:54:44.307Z,3.90
2019-01-15T12:57:29.982Z,3.90
2019-01-15T13:00:15.886Z,3.90
2019-01-15T13:03:21.284Z,3.90
2019-01-15T13:06:07.291Z,3.90
2019-01-15T13:08:52.402Z,3.90
2019-01-15T13:11:38.239Z,3.80
2019-01-15T13:14:34.541Z,4.10
2019-01-15T13:17:24.555Z,4.40
2019-01-15T13:20:14.088Z,4.50
2019-01-15T13:23:01.305Z,4.50
2019-01-15T13:25:47.039Z,4.70
2019-01-15T13:28:34.030Z,4.70
2019-01-15T13:31:12.508Z,4.90
2019-01-15T13:33:58.538Z,4.80
2019-01-15T13:36:38.860Z,4.70
2019-01-15T13:39:26.887Z,4.50
2019-01-15T13:42:31.879Z,4.70
2019-01-15T13:45:19.088Z,4.60
2019-01-15T13:48:04.807Z,4.40
2019-01-15T13:50:50.574Z,4.40
2019-01-15T13:53:36.483Z,4.40
2019-01-15T13:56:22.419Z,4.30
2019-01-15T13:59:10.308Z,4.40
2019-01-15T14:02:01.292Z,4.40
2019-01-15T14:04:47.127Z,4.30
2019-01-15T14:07:37.339Z,4.20
2019-01-15T14:10:25.928Z,4.20
2019-01-15T14:13:28.265Z,4.20
2019-01-15T14:16:15.164Z,4.10
2019-01-15T14:19:04.173Z,4.00
2019-01-15T14:21:50.300Z,4.00
2019-01-15T14:24:36.202Z,4.00
2019-01-15T14:27:22.233Z,4.00
2019-01-15T14:30:16.422Z,4.00
2019-01-15T14:33:09.352Z,4.00
2019-01-15T14:35:55.075Z,4.00
2019-01-15T14:38:48.141Z,4.00
2019-01-15T14:41:47.261Z,4.00
2019-01-15T14:44:43.328Z,4.00
2019-01-15T14:47:29.228Z,4.00
2019-01-15T14:50:28.520Z,4.00
2019-01-15T14:53:13.865Z,4.00
2019-01-15T14:55:59.833Z,4.00
2019-01-15T14:59:05.223Z,4.00
2019-01-15T15:02:02.037Z,3.90
2019-01-15T15:04:49.015Z,4.00
2019-01-15T15:07:34.743Z,4.00
2019-01-15T15:10:20.250Z,3.90
2019-01-15T15:13:02.505Z,4.00
2019-01-15T15:15:51.026Z,3.90
2019-01-15T15:18:47.369Z,4.00
2019-01-15T15:21:36.051Z,4.00
2019-01-15T15:24:29.227Z,3.90
2019-01-15T15:27:16.231Z,3.90
2019-01-15T15:29:55.456Z,3.90
2019-01-15T15:32:46.866Z,3.90
2019-01-15T15:35:37.474Z,3.90
2019-01-15T15:38:23.034Z,3.90
2019-01-15T15:41:19.126Z,3.90
2019-01-15T15:44:08.904Z,3.90
2019-01-15T15:46:57.335Z,3.90
2019-01-15T15:49:46.650Z,3.90
2019-01-15T15:52:36.685Z,3.90
2019-01-15T15:55:25.177Z,3.90
2019-01-15T15:58:07.008Z,3.90
2019-01-15T16:01:12.091Z,3.90
2019-01-15T16:03:59.138Z,3.90
2019-01-15T16:06:48.878Z,3.90
2019-01-15T16:09:45.217Z,3.90
2019-01-15T16:12:26.126Z,3.90
2019-01-15T16:15:11.473Z,3.90
2019-01-15T16:18:13.761Z,3.90
2019-01-15T16:20:59.359Z,3.90
2019-01-15T16:23:52.656Z,3.90
2019-01-15T16:26:45.624Z,3.90
2019-01-15T16:29:29.323Z,3.90
2019-01-15T16:32:34.618Z,3.90
2019-01-15T16:35:14.381Z,3.90
2019-01-15T16:37:51.725Z,3.90
2019-01-15T16:40:40.414Z,3.90
2019-01-15T16:43:25.868Z,3.90
2019-01-15T16:46:12.964Z,3.90
2019-01-15T16:49:15.308Z,3.80
2019-01-15T16:51:55.578Z,3.80
2019-01-15T16:54:44.917Z,3.80
2019-01-15T16:57:31.891Z,3.80
2019-01-15T17:00:19.186Z,3.80
2019-01-15T17:03:15.126Z,3.80
2019-01-15T17:06:04.152Z,3.70
2019-01-15T17:08:50.176Z,3.70
2019-01-15T17:11:37.208Z,3.80
2019-01-15T17:14:30.254Z,3.80
2019-01-15T17:17:16.085Z,3.80
2019-01-15T17:20:01.987Z,3.80
2019-01-15T17:22:47.864Z,3.80
2019-01-15T17:25:36.513Z,3.80
2019-01-15T17:28:17.325Z,3.80
2019-01-15T17:31:04.281Z,3.90
2019-01-15T17:33:52.552Z,3.90
2019-01-15T17:36:48.668Z,3.90
2019-01-15T17:39:35.211Z,3.90
2019-01-15T17:42:24.837Z,3.90
2019-01-15T17:45:10.438Z,3.90
2019-01-15T17:47:59.819Z,3.90
2019-01-15T17:50:41.829Z,3.90
2019-01-15T17:53:30.866Z,3.90
2019-01-15T17:56:17.909Z,3.90
2019-01-15T17:58:58.463Z,3.90
2019-01-15T18:01:48.282Z,3.90
2019-01-15T18:04:34.284Z,3.90
2019-01-15T18:07:27.525Z,3.90
2019-01-15T18:10:17.354Z,3.90
2019-01-15T18:13:03.009Z,3.80
2019-01-15T18:15:48.330Z,3.80
2019-01-15T18:18:44.795Z,3.80
2019-01-15T18:21:30.430Z,3.80
2019-01-15T18:24:08.237Z,3.80
2019-01-15T18:26:58.416Z,3.80
2019-01-15T18:29:48.167Z,3.80
2019-01-15T18:32:29.302Z,3.90
2019-01-15T18:35:04.923Z,3.80
2019-01-15T18:37:50.678Z,3.80
2019-01-15T18:40:46.935Z,3.80
2019-01-15T18:43:35.092Z,3.80
2019-01-15T18:46:16.905Z,3.80
2019-01-15T18:48:58.933Z,3.80
2019-01-15T18:51:44.850Z,3.80
2019-01-15T18:54:40.512Z,3.80
2019-01-15T18:57:39.179Z,3.80
2019-01-15T19:00:28.676Z,3.80
2019-01-15T19:03:14.444Z,3.80
2019-01-15T19:05:58.500Z,3.80
2019-01-15T19:08:49.157Z,3.80
2019-01-15T19:11:23.999Z,3.70
2019-01-15T19:14:20.391Z,3.70
2019-01-15T19:17:07.697Z,3.70
2019-01-15T19:19:56.539Z,3.70
2019-01-15T19:22:43.548Z,3.70
2019-01-15T19:25:25.861Z,3.70
2019-01-15T19:28:12.833Z,3.70
2019-01-15T19:30:59.850Z,3.70
2019-01-15T19:33:49.930Z,3.70
2019-01-15T19:36:39.149Z,3.70
2019-01-15T19:39:26.236Z,3.70
2019-01-15T19:42:19.074Z,3.70
2019-01-15T19:45:05.041Z,3.70
2019-01-15T19:47:50.538Z,3.70
2019-01-15T19:50:49.840Z,3.70
2019-01-15T19:53:46.140Z,3.70
2019-01-15T19:56:28.083Z,3.70
2019-01-15T19:59:33.282Z,3.70
2019-01-15T20:02:32.396Z,3.70
2019-01-15T20:05:15.779Z,3.80
2019-01-15T20:08:01.351Z,3.80
2019-01-15T20:10:50.086Z,3.80
2019-01-15T20:13:29.735Z,3.80
2019-01-15T20:16:26.079Z,3.80
2019-01-15T20:19:24.932Z,3.90
2019-01-15T20:22:10.648Z,3.80
2019-01-15T20:25:02.547Z,3.90
2019-01-15T20:27:58.387Z,3.90
2019-01-15T20:30:54.262Z,3.90
2019-01-15T20:33:39.956Z,3.90
2019-01-15T20:36:16.140Z,3.90
2019-01-15T20:39:01.344Z,3.90
2019-01-15T20:41:41.372Z,3.90
2019-01-15T20:44:23.154Z,3.90
2019-01-15T20:47:25.438Z,3.90
2019-01-15T20:50:11.079Z,3.90
2019-01-15T20:53:02.380Z,3.90
2019-01-15T20:55:49.378Z,3.90
2019-01-15T20:58:33.274Z,3.90
2019-01-15T21:01:19.125Z,3.90
2019-01-15T21:04:05.020Z,3.90
2019-01-15T21:06:42.780Z,3.90
2019-01-15T21:09:28.350Z,3.90
2019-01-15T21:12:21.604Z,3.90
2019-01-15T21:15:07.855Z,3.90
2019-01-15T21:17:53.691Z,3.90
2019-01-15T21:20:34.056Z,3.90
2019-01-15T21:23:25.743Z,4.00
2019-01-15T21:26:03.597Z,3.80
2019-01-15T21:28:59.765Z,3.80
2019-01-15T21:31:49.541Z,3.80
2019-01-15T21:34:45.640Z,3.80
2019-01-15T21:37:50.935Z,3.80
2019-01-15T21:40:41.855Z,3.80
2019-01-15T21:43:34.816Z,3.80
2019-01-15T21:46:21.783Z,3.80
2019-01-15T21:49:17.768Z,3.80
2019-01-15T21:52:03.106Z,3.80
2019-01-15T21:54:58.933Z,3.80
2019-01-15T21:57:43.786Z,3.80
2019-01-15T22:00:34.382Z,3.80
2019-01-15T22:03:13.139Z,3.80
2019-01-15T22:05:51.672Z,3.80
2019-01-15T22:08:37.193Z,3.80
2019-01-15T22:11:28.439Z,3.80
2019-01-15T22:14:08.409Z,3.80
2019-01-15T22:16:51.600Z,3.80
2019-01-15T22:19:55.982Z,3.80
2019-01-15T22:22:36.911Z,3.80
2019-01-15T22:25:39.989Z,3.80
2019-01-15T22:28:25.854Z,3.80
2019-01-15T22:31:27.650Z,3.80
2019-01-15T22:34:26.711Z,3.80
2019-01-15T22:37:12.413Z,3.80
2019-01-15T22:39:58.953Z,3.80
2019-01-15T22:42:45.959Z,3.80
2019-01-15T22:45:44.978Z,3.80
2019-01-15T22:48:30.582Z,3.80
2019-01-15T22:51:16.206Z,3.80
2019-01-15T22:53:53.697Z,3.80
2019-01-15T22:56:35.122Z,3.80
2019-01-15T22:59:37.083Z,3.80
2019-01-15T23:02:14.228Z,3.80
2019-01-15T23:05:07.202Z,3.80
2019-01-15T23:08:09.321Z,3.80
2019-01-15T23:13:12.099Z,3.80
2019-01-15T23:15:56.124Z,3.90
2019-01-15T23:18:46.977Z,3.70
2019-01-15T23:21:46.344Z,3.70
2019-01-15T23:24:32.068Z,3.80
2019-01-15T23:27:28.298Z,3.80
2019-01-15T23:30:18.298Z,3.80
2019-01-15T23:33:16.808Z,3.80
2019-01-15T23:35:55.769Z,4.00
2019-01-15T23:38:57.891Z,3.80
2019-01-15T23:41:51.103Z,3.80
2019-01-15T23:44:44.280Z,3.80
2019-01-15T23:47:20.660Z,3.90
2019-01-15T23:50:07.666Z,3.90
2019-01-15T23:52:53.588Z,3.90
2019-01-15T23:55:40.080Z,4.00
2019-01-15T23:58:26.404Z,4.00
